sensor_id;sensor_type;location;lat;lon;timestamp;temperature;humidity
76172;DHT22;64929;51.178;4.138;2023-03-14T00:01:56;11.50;77.30
76172;DHT22;64929;51.178;4.138;2023-03-14T00:04:22;11.50;77.30
76172;DHT22;64929;51.178;4.138;2023-03-14T00:06:48;11.50;77.30
76172;DHT22;64929;51.178;4.138;2023-03-14T00:09:18;11.40;77.70
76172;DHT22;64929;51.178;4.138;2023-03-14T00:11:44;11.40;77.70
76172;DHT22;64929;51.178;4.138;2023-03-14T00:14:09;11.30;77.60
76172;DHT22;64929;51.178;4.138;2023-03-14T00:16:35;11.30;77.40
76172;DHT22;64929;51.178;4.138;2023-03-14T00:19:01;11.30;77.60
76172;DHT22;64929;51.178;4.138;2023-03-14T00:21:27;11.30;77.60
76172;DHT22;64929;51.178;4.138;2023-03-14T00:23:52;11.20;77.70
76172;DHT22;64929;51.178;4.138;2023-03-14T00:26:21;11.30;77.20
76172;DHT22;64929;51.178;4.138;2023-03-14T00:28:50;11.30;77.20
76172;DHT22;64929;51.178;4.138;2023-03-14T00:31:16;11.20;77.60
76172;DHT22;64929;51.178;4.138;2023-03-14T00:33:42;11.30;77.40
76172;DHT22;64929;51.178;4.138;2023-03-14T00:36:11;11.30;77.00
76172;DHT22;64929;51.178;4.138;2023-03-14T00:38:38;11.30;77.40
76172;DHT22;64929;51.178;4.138;2023-03-14T00:41:06;11.30;77.30
76172;DHT22;64929;51.178;4.138;2023-03-14T00:43:32;11.30;77.60
76172;DHT22;64929;51.178;4.138;2023-03-14T00:45:58;11.20;78.10
76172;DHT22;64929;51.178;4.138;2023-03-14T00:48:24;11.30;77.40
76172;DHT22;64929;51.178;4.138;2023-03-14T00:50:50;11.30;77.80
76172;DHT22;64929;51.178;4.138;2023-03-14T00:53:16;11.40;77.70
76172;DHT22;64929;51.178;4.138;2023-03-14T00:55:43;11.30;77.30
76172;DHT22;64929;51.178;4.138;2023-03-14T00:58:10;11.20;77.90
76172;DHT22;64929;51.178;4.138;2023-03-14T01:00:36;11.20;78.60
76172;DHT22;64929;51.178;4.138;2023-03-14T01:03:01;11.10;79.10
76172;DHT22;64929;51.178;4.138;2023-03-14T01:05:28;11.00;79.50
76172;DHT22;64929;51.178;4.138;2023-03-14T01:07:54;11.10;79.60
76172;DHT22;64929;51.178;4.138;2023-03-14T01:10:20;11.10;79.60
76172;DHT22;64929;51.178;4.138;2023-03-14T01:12:45;11.10;80.20
76172;DHT22;64929;51.178;4.138;2023-03-14T01:15:11;11.10;80.20
76172;DHT22;64929;51.178;4.138;2023-03-14T01:17:37;11.10;80.70
76172;DHT22;64929;51.178;4.138;2023-03-14T01:20:07;11.10;81.00
76172;DHT22;64929;51.178;4.138;2023-03-14T01:22:36;11.00;81.30
76172;DHT22;64929;51.178;4.138;2023-03-14T01:25:04;11.00;81.40
76172;DHT22;64929;51.178;4.138;2023-03-14T01:27:30;11.00;81.90
76172;DHT22;64929;51.178;4.138;2023-03-14T01:29:56;10.90;82.10
76172;DHT22;64929;51.178;4.138;2023-03-14T01:32:22;11.00;81.90
76172;DHT22;64929;51.178;4.138;2023-03-14T01:34:47;10.90;82.20
76172;DHT22;64929;51.178;4.138;2023-03-14T01:37:13;10.90;82.10
76172;DHT22;64929;51.178;4.138;2023-03-14T01:39:38;11.00;81.80
76172;DHT22;64929;51.178;4.138;2023-03-14T01:42:04;11.00;81.90
76172;DHT22;64929;51.178;4.138;2023-03-14T01:44:53;11.00;81.80
76172;DHT22;64929;51.178;4.138;2023-03-14T01:47:19;11.00;81.70
76172;DHT22;64929;51.178;4.138;2023-03-14T01:49:47;11.10;81.70
76172;DHT22;64929;51.178;4.138;2023-03-14T01:52:35;11.00;82.10
76172;DHT22;64929;51.178;4.138;2023-03-14T01:55:17;10.90;82.10
76172;DHT22;64929;51.178;4.138;2023-03-14T01:57:47;10.90;82.50
76172;DHT22;64929;51.178;4.138;2023-03-14T02:00:17;10.90;82.20
76172;DHT22;64929;51.178;4.138;2023-03-14T02:02:46;11.00;81.90
76172;DHT22;64929;51.178;4.138;2023-03-14T02:05:14;11.10;81.90
76172;DHT22;64929;51.178;4.138;2023-03-14T02:07:47;11.10;81.50
76172;DHT22;64929;51.178;4.138;2023-03-14T02:10:15;11.00;81.70
76172;DHT22;64929;51.178;4.138;2023-03-14T02:12:41;11.10;81.40
76172;DHT22;64929;51.178;4.138;2023-03-14T02:15:08;11.10;81.10
76172;DHT22;64929;51.178;4.138;2023-03-14T02:17:35;11.10;81.30
76172;DHT22;64929;51.178;4.138;2023-03-14T02:22:50;11.00;81.80
76172;DHT22;64929;51.178;4.138;2023-03-14T02:27:52;11.00;81.70
76172;DHT22;64929;51.178;4.138;2023-03-14T02:30:24;11.00;81.50
76172;DHT22;64929;51.178;4.138;2023-03-14T02:32:57;11.10;81.30
76172;DHT22;64929;51.178;4.138;2023-03-14T02:35:31;11.10;81.80
76172;DHT22;64929;51.178;4.138;2023-03-14T02:40:41;11.10;81.30
76172;DHT22;64929;51.178;4.138;2023-03-14T02:43:07;11.10;81.10
76172;DHT22;64929;51.178;4.138;2023-03-14T02:45:39;11.10;81.20
76172;DHT22;64929;51.178;4.138;2023-03-14T02:48:15;11.10;81.00
76172;DHT22;64929;51.178;4.138;2023-03-14T02:50:41;11.20;81.30
76172;DHT22;64929;51.178;4.138;2023-03-14T02:53:07;11.20;81.20
76172;DHT22;64929;51.178;4.138;2023-03-14T02:55:33;11.10;81.60
76172;DHT22;64929;51.178;4.138;2023-03-14T02:57:59;11.20;81.40
76172;DHT22;64929;51.178;4.138;2023-03-14T03:00:24;11.00;82.20
76172;DHT22;64929;51.178;4.138;2023-03-14T03:02:50;11.00;82.60
76172;DHT22;64929;51.178;4.138;2023-03-14T03:05:16;11.10;82.20
76172;DHT22;64929;51.178;4.138;2023-03-14T03:07:41;11.20;82.90
76172;DHT22;64929;51.178;4.138;2023-03-14T03:10:08;11.20;83.40
76172;DHT22;64929;51.178;4.138;2023-03-14T03:12:34;10.90;84.50
76172;DHT22;64929;51.178;4.138;2023-03-14T03:14:59;10.90;84.90
76172;DHT22;64929;51.178;4.138;2023-03-14T03:17:25;10.90;84.80
76172;DHT22;64929;51.178;4.138;2023-03-14T03:19:51;10.80;85.20
76172;DHT22;64929;51.178;4.138;2023-03-14T03:22:16;10.80;85.70
76172;DHT22;64929;51.178;4.138;2023-03-14T03:24:42;10.70;86.00
76172;DHT22;64929;51.178;4.138;2023-03-14T03:27:08;10.80;86.50
76172;DHT22;64929;51.178;4.138;2023-03-14T03:29:34;10.70;87.10
76172;DHT22;64929;51.178;4.138;2023-03-14T03:31:59;10.80;87.20
76172;DHT22;64929;51.178;4.138;2023-03-14T03:34:26;10.70;88.00
76172;DHT22;64929;51.178;4.138;2023-03-14T03:36:56;10.60;88.50
76172;DHT22;64929;51.178;4.138;2023-03-14T03:39:22;10.60;88.90
76172;DHT22;64929;51.178;4.138;2023-03-14T03:41:47;10.70;88.80
76172;DHT22;64929;51.178;4.138;2023-03-14T03:44:13;10.60;89.30
76172;DHT22;64929;51.178;4.138;2023-03-14T03:46:39;10.80;89.30
76172;DHT22;64929;51.178;4.138;2023-03-14T03:49:04;10.70;89.40
76172;DHT22;64929;51.178;4.138;2023-03-14T03:51:30;10.70;89.80
76172;DHT22;64929;51.178;4.138;2023-03-14T03:53:56;10.70;89.50
76172;DHT22;64929;51.178;4.138;2023-03-14T03:56:22;10.70;89.70
76172;DHT22;64929;51.178;4.138;2023-03-14T03:58:48;10.60;90.10
76172;DHT22;64929;51.178;4.138;2023-03-14T04:01:14;10.60;90.10
76172;DHT22;64929;51.178;4.138;2023-03-14T04:03:39;10.70;89.90
76172;DHT22;64929;51.178;4.138;2023-03-14T04:06:10;10.60;90.10
76172;DHT22;64929;51.178;4.138;2023-03-14T04:08:37;10.50;90.40
76172;DHT22;64929;51.178;4.138;2023-03-14T04:11:03;10.50;90.60
76172;DHT22;64929;51.178;4.138;2023-03-14T04:13:29;10.60;90.30
76172;DHT22;64929;51.178;4.138;2023-03-14T04:15:56;10.70;90.00
76172;DHT22;64929;51.178;4.138;2023-03-14T04:18:22;10.60;90.20
76172;DHT22;64929;51.178;4.138;2023-03-14T04:20:54;10.60;90.30
76172;DHT22;64929;51.178;4.138;2023-03-14T04:23:20;10.50;90.40
76172;DHT22;64929;51.178;4.138;2023-03-14T04:25:47;10.60;90.40
76172;DHT22;64929;51.178;4.138;2023-03-14T04:28:12;10.60;90.60
76172;DHT22;64929;51.178;4.138;2023-03-14T04:30:38;10.70;90.60
76172;DHT22;64929;51.178;4.138;2023-03-14T04:33:03;10.60;90.90
76172;DHT22;64929;51.178;4.138;2023-03-14T04:35:32;10.50;91.20
76172;DHT22;64929;51.178;4.138;2023-03-14T04:37:57;10.50;91.40
76172;DHT22;64929;51.178;4.138;2023-03-14T04:40:24;10.40;91.70
76172;DHT22;64929;51.178;4.138;2023-03-14T04:42:50;10.40;91.70
76172;DHT22;64929;51.178;4.138;2023-03-14T04:45:16;10.60;91.60
76172;DHT22;64929;51.178;4.138;2023-03-14T04:47:42;10.60;91.50
76172;DHT22;64929;51.178;4.138;2023-03-14T04:50:09;10.60;91.50
76172;DHT22;64929;51.178;4.138;2023-03-14T04:52:35;10.60;91.50
76172;DHT22;64929;51.178;4.138;2023-03-14T04:55:01;10.50;91.70
76172;DHT22;64929;51.178;4.138;2023-03-14T04:57:27;10.60;91.80
76172;DHT22;64929;51.178;4.138;2023-03-14T04:59:52;10.50;91.80
76172;DHT22;64929;51.178;4.138;2023-03-14T05:02:18;10.60;91.80
76172;DHT22;64929;51.178;4.138;2023-03-14T05:04:44;10.70;91.50
76172;DHT22;64929;51.178;4.138;2023-03-14T05:07:09;10.70;91.60
76172;DHT22;64929;51.178;4.138;2023-03-14T05:09:35;10.60;91.60
76172;DHT22;64929;51.178;4.138;2023-03-14T05:12:01;10.70;91.50
76172;DHT22;64929;51.178;4.138;2023-03-14T05:14:26;10.70;91.60
76172;DHT22;64929;51.178;4.138;2023-03-14T05:16:52;10.70;91.20
76172;DHT22;64929;51.178;4.138;2023-03-14T05:19:18;10.70;91.10
76172;DHT22;64929;51.178;4.138;2023-03-14T05:21:43;10.70;91.10
76172;DHT22;64929;51.178;4.138;2023-03-14T05:24:09;10.80;90.80
76172;DHT22;64929;51.178;4.138;2023-03-14T05:26:34;10.90;90.70
76172;DHT22;64929;51.178;4.138;2023-03-14T05:29:00;10.90;90.60
76172;DHT22;64929;51.178;4.138;2023-03-14T05:31:26;11.00;90.20
76172;DHT22;64929;51.178;4.138;2023-03-14T05:33:52;10.90;90.40
76172;DHT22;64929;51.178;4.138;2023-03-14T05:36:17;10.90;90.70
76172;DHT22;64929;51.178;4.138;2023-03-14T05:38:43;10.90;90.80
76172;DHT22;64929;51.178;4.138;2023-03-14T05:41:09;10.90;90.80
76172;DHT22;64929;51.178;4.138;2023-03-14T05:43:34;10.80;91.00
76172;DHT22;64929;51.178;4.138;2023-03-14T05:46:00;10.70;91.20
76172;DHT22;64929;51.178;4.138;2023-03-14T05:48:26;10.80;91.20
76172;DHT22;64929;51.178;4.138;2023-03-14T05:50:56;10.80;91.20
76172;DHT22;64929;51.178;4.138;2023-03-14T05:53:21;10.80;91.20
76172;DHT22;64929;51.178;4.138;2023-03-14T05:55:50;10.80;91.50
76172;DHT22;64929;51.178;4.138;2023-03-14T05:58:15;10.80;91.50
76172;DHT22;64929;51.178;4.138;2023-03-14T06:00:41;10.90;91.40
76172;DHT22;64929;51.178;4.138;2023-03-14T06:03:07;10.80;91.00
76172;DHT22;64929;51.178;4.138;2023-03-14T06:05:37;10.70;91.40
76172;DHT22;64929;51.178;4.138;2023-03-14T06:08:13;10.70;91.50
76172;DHT22;64929;51.178;4.138;2023-03-14T06:10:52;10.80;91.30
76172;DHT22;64929;51.178;4.138;2023-03-14T06:13:18;10.70;91.20
76172;DHT22;64929;51.178;4.138;2023-03-14T06:15:44;10.60;90.70
76172;DHT22;64929;51.178;4.138;2023-03-14T06:18:10;10.20;87.60
76172;DHT22;64929;51.178;4.138;2023-03-14T06:20:36;9.90;88.00
76172;DHT22;64929;51.178;4.138;2023-03-14T06:23:05;9.70;88.00
76172;DHT22;64929;51.178;4.138;2023-03-14T06:25:31;9.50;88.00
76172;DHT22;64929;51.178;4.138;2023-03-14T06:27:57;9.30;88.10
76172;DHT22;64929;51.178;4.138;2023-03-14T06:30:23;9.10;88.20
76172;DHT22;64929;51.178;4.138;2023-03-14T06:32:48;8.80;89.60
76172;DHT22;64929;51.178;4.138;2023-03-14T06:35:14;8.80;90.00
76172;DHT22;64929;51.178;4.138;2023-03-14T06:37:40;8.80;90.50
76172;DHT22;64929;51.178;4.138;2023-03-14T06:40:06;8.70;90.50
76172;DHT22;64929;51.178;4.138;2023-03-14T06:42:33;8.60;89.50
76172;DHT22;64929;51.178;4.138;2023-03-14T06:44:58;8.50;90.40
76172;DHT22;64929;51.178;4.138;2023-03-14T06:47:24;8.50;90.20
76172;DHT22;64929;51.178;4.138;2023-03-14T06:49:50;8.40;88.80
76172;DHT22;64929;51.178;4.138;2023-03-14T06:52:15;8.30;89.80
76172;DHT22;64929;51.178;4.138;2023-03-14T06:54:41;8.20;90.40
76172;DHT22;64929;51.178;4.138;2023-03-14T06:57:07;8.30;90.50
76172;DHT22;64929;51.178;4.138;2023-03-14T06:59:32;8.40;89.70
76172;DHT22;64929;51.178;4.138;2023-03-14T07:01:58;8.30;89.80
76172;DHT22;64929;51.178;4.138;2023-03-14T07:04:24;8.40;90.30
76172;DHT22;64929;51.178;4.138;2023-03-14T07:06:49;8.30;90.80
76172;DHT22;64929;51.178;4.138;2023-03-14T07:09:15;8.30;90.20
76172;DHT22;64929;51.178;4.138;2023-03-14T07:11:43;8.30;90.30
76172;DHT22;64929;51.178;4.138;2023-03-14T07:14:08;8.20;90.50
76172;DHT22;64929;51.178;4.138;2023-03-14T07:16:34;8.20;90.30
76172;DHT22;64929;51.178;4.138;2023-03-14T07:19:01;8.10;90.90
76172;DHT22;64929;51.178;4.138;2023-03-14T07:21:27;8.10;90.30
76172;DHT22;64929;51.178;4.138;2023-03-14T07:23:53;8.10;90.00
76172;DHT22;64929;51.178;4.138;2023-03-14T07:26:18;8.20;90.00
76172;DHT22;64929;51.178;4.138;2023-03-14T07:28:44;8.20;90.40
76172;DHT22;64929;51.178;4.138;2023-03-14T07:31:10;8.10;90.60
76172;DHT22;64929;51.178;4.138;2023-03-14T07:33:36;8.10;90.60
76172;DHT22;64929;51.178;4.138;2023-03-14T07:36:02;8.00;90.30
76172;DHT22;64929;51.178;4.138;2023-03-14T07:38:27;8.00;90.80
76172;DHT22;64929;51.178;4.138;2023-03-14T07:41:05;8.10;90.90
76172;DHT22;64929;51.178;4.138;2023-03-14T07:43:31;8.00;91.00
76172;DHT22;64929;51.178;4.138;2023-03-14T07:45:57;8.20;90.50
76172;DHT22;64929;51.178;4.138;2023-03-14T07:48:23;8.20;90.50
76172;DHT22;64929;51.178;4.138;2023-03-14T07:50:51;8.20;90.60
76172;DHT22;64929;51.178;4.138;2023-03-14T07:53:18;8.30;90.80
76172;DHT22;64929;51.178;4.138;2023-03-14T07:55:44;8.30;90.10
76172;DHT22;64929;51.178;4.138;2023-03-14T07:58:10;8.10;90.80
76172;DHT22;64929;51.178;4.138;2023-03-14T08:00:36;8.20;90.90
76172;DHT22;64929;51.178;4.138;2023-03-14T08:03:02;8.20;91.10
76172;DHT22;64929;51.178;4.138;2023-03-14T08:05:27;8.20;90.20
76172;DHT22;64929;51.178;4.138;2023-03-14T08:07:53;8.10;90.80
76172;DHT22;64929;51.178;4.138;2023-03-14T08:10:19;8.10;90.20
76172;DHT22;64929;51.178;4.138;2023-03-14T08:12:49;8.00;90.30
76172;DHT22;64929;51.178;4.138;2023-03-14T08:15:15;8.10;87.90
76172;DHT22;64929;51.178;4.138;2023-03-14T08:17:41;8.10;89.20
76172;DHT22;64929;51.178;4.138;2023-03-14T08:20:07;8.10;89.20
76172;DHT22;64929;51.178;4.138;2023-03-14T08:22:36;8.10;88.90
76172;DHT22;64929;51.178;4.138;2023-03-14T08:25:03;8.00;90.10
76172;DHT22;64929;51.178;4.138;2023-03-14T08:27:28;8.00;88.90
76172;DHT22;64929;51.178;4.138;2023-03-14T08:29:54;8.10;88.00
76172;DHT22;64929;51.178;4.138;2023-03-14T08:32:20;8.10;87.20
76172;DHT22;64929;51.178;4.138;2023-03-14T08:34:46;8.20;86.40
76172;DHT22;64929;51.178;4.138;2023-03-14T08:37:12;8.20;86.90
76172;DHT22;64929;51.178;4.138;2023-03-14T08:39:37;8.40;86.50
76172;DHT22;64929;51.178;4.138;2023-03-14T08:42:03;8.40;85.40
76172;DHT22;64929;51.178;4.138;2023-03-14T08:44:29;8.40;84.60
76172;DHT22;64929;51.178;4.138;2023-03-14T08:46:55;8.30;84.60
76172;DHT22;64929;51.178;4.138;2023-03-14T08:49:21;8.30;83.70
76172;DHT22;64929;51.178;4.138;2023-03-14T08:51:47;8.30;83.20
76172;DHT22;64929;51.178;4.138;2023-03-14T08:54:12;8.20;83.30
76172;DHT22;64929;51.178;4.138;2023-03-14T08:56:38;8.20;83.90
76172;DHT22;64929;51.178;4.138;2023-03-14T08:59:04;8.30;83.20
76172;DHT22;64929;51.178;4.138;2023-03-14T09:01:30;8.30;82.60
76172;DHT22;64929;51.178;4.138;2023-03-14T09:03:56;8.40;83.00
76172;DHT22;64929;51.178;4.138;2023-03-14T09:06:22;8.60;82.90
76172;DHT22;64929;51.178;4.138;2023-03-14T09:08:47;8.70;83.10
76172;DHT22;64929;51.178;4.138;2023-03-14T09:11:14;8.70;84.40
76172;DHT22;64929;51.178;4.138;2023-03-14T09:13:39;8.60;84.20
76172;DHT22;64929;51.178;4.138;2023-03-14T09:16:06;8.40;85.70
76172;DHT22;64929;51.178;4.138;2023-03-14T09:18:32;8.30;85.70
76172;DHT22;64929;51.178;4.138;2023-03-14T09:20:58;8.10;86.40
76172;DHT22;64929;51.178;4.138;2023-03-14T09:23:23;8.10;87.30
76172;DHT22;64929;51.178;4.138;2023-03-14T09:25:57;7.90;88.70
76172;DHT22;64929;51.178;4.138;2023-03-14T09:28:23;7.80;89.00
76172;DHT22;64929;51.178;4.138;2023-03-14T09:30:49;7.70;90.00
76172;DHT22;64929;51.178;4.138;2023-03-14T09:33:17;7.60;89.80
76172;DHT22;64929;51.178;4.138;2023-03-14T09:35:43;7.60;90.00
76172;DHT22;64929;51.178;4.138;2023-03-14T09:38:08;7.50;90.00
76172;DHT22;64929;51.178;4.138;2023-03-14T09:40:35;7.50;90.00
76172;DHT22;64929;51.178;4.138;2023-03-14T09:43:03;7.40;89.90
76172;DHT22;64929;51.178;4.138;2023-03-14T09:45:36;7.50;90.20
76172;DHT22;64929;51.178;4.138;2023-03-14T09:48:04;7.50;89.40
76172;DHT22;64929;51.178;4.138;2023-03-14T09:50:43;7.50;90.30
76172;DHT22;64929;51.178;4.138;2023-03-14T09:53:32;7.60;90.10
76172;DHT22;64929;51.178;4.138;2023-03-14T09:56:01;7.60;90.40
76172;DHT22;64929;51.178;4.138;2023-03-14T09:58:27;7.70;90.90
76172;DHT22;64929;51.178;4.138;2023-03-14T10:00:55;7.70;89.20
76172;DHT22;64929;51.178;4.138;2023-03-14T10:03:34;7.90;89.80
76172;DHT22;64929;51.178;4.138;2023-03-14T10:06:00;7.80;89.90
76172;DHT22;64929;51.178;4.138;2023-03-14T10:08:27;7.80;90.40
76172;DHT22;64929;51.178;4.138;2023-03-14T10:10:53;7.90;90.70
76172;DHT22;64929;51.178;4.138;2023-03-14T10:16:04;8.00;90.50
76172;DHT22;64929;51.178;4.138;2023-03-14T10:18:32;8.20;89.40
76172;DHT22;64929;51.178;4.138;2023-03-14T10:21:16;8.40;89.20
76172;DHT22;64929;51.178;4.138;2023-03-14T10:23:42;8.40;88.40
76172;DHT22;64929;51.178;4.138;2023-03-14T10:26:13;8.60;87.40
76172;DHT22;64929;51.178;4.138;2023-03-14T10:28:45;8.70;89.80
76172;DHT22;64929;51.178;4.138;2023-03-14T10:31:11;9.00;87.50
76172;DHT22;64929;51.178;4.138;2023-03-14T10:33:38;9.10;85.10
76172;DHT22;64929;51.178;4.138;2023-03-14T10:36:19;9.10;84.50
76172;DHT22;64929;51.178;4.138;2023-03-14T10:38:46;9.20;84.20
76172;DHT22;64929;51.178;4.138;2023-03-14T10:41:26;9.40;82.30
76172;DHT22;64929;51.178;4.138;2023-03-14T10:43:59;9.40;83.00
76172;DHT22;64929;51.178;4.138;2023-03-14T10:46:30;9.50;83.40
76172;DHT22;64929;51.178;4.138;2023-03-14T10:48:56;9.40;83.60
76172;DHT22;64929;51.178;4.138;2023-03-14T10:51:29;9.40;80.70
76172;DHT22;64929;51.178;4.138;2023-03-14T10:54:12;9.40;78.70
76172;DHT22;64929;51.178;4.138;2023-03-14T10:56:37;9.60;79.80
76172;DHT22;64929;51.178;4.138;2023-03-14T10:59:07;9.60;78.50
76172;DHT22;64929;51.178;4.138;2023-03-14T11:15:26;9.20;77.80
76172;DHT22;64929;51.178;4.138;2023-03-14T11:18:17;9.10;78.60
76172;DHT22;64929;51.178;4.138;2023-03-14T11:20:46;9.10;79.50
76172;DHT22;64929;51.178;4.138;2023-03-14T11:23:20;9.20;80.00
76172;DHT22;64929;51.178;4.138;2023-03-14T11:30:47;9.40;79.00
76172;DHT22;64929;51.178;4.138;2023-03-14T11:33:20;9.30;80.80
76172;DHT22;64929;51.178;4.138;2023-03-14T11:35:48;9.20;79.50
76172;DHT22;64929;51.178;4.138;2023-03-14T11:38:32;9.10;81.40
76172;DHT22;64929;51.178;4.138;2023-03-14T11:40:59;9.20;80.50
76172;DHT22;64929;51.178;4.138;2023-03-14T11:45:51;9.50;81.20
76172;DHT22;64929;51.178;4.138;2023-03-14T11:51:04;10.00;78.10
76172;DHT22;64929;51.178;4.138;2023-03-14T11:56:09;10.20;77.10
76172;DHT22;64929;51.178;4.138;2023-03-14T11:58:37;10.10;76.90
76172;DHT22;64929;51.178;4.138;2023-03-14T12:01:08;10.00;77.30
76172;DHT22;64929;51.178;4.138;2023-03-14T12:03:52;9.50;76.10
76172;DHT22;64929;51.178;4.138;2023-03-14T12:08:55;9.00;80.50
76172;DHT22;64929;51.178;4.138;2023-03-14T12:14:25;8.60;82.10
76172;DHT22;64929;51.178;4.138;2023-03-14T12:16:53;8.60;81.90
76172;DHT22;64929;51.178;4.138;2023-03-14T12:21:49;8.80;80.70
76172;DHT22;64929;51.178;4.138;2023-03-14T12:24:20;8.80;80.30
76172;DHT22;64929;51.178;4.138;2023-03-14T12:26:58;8.90;80.70
76172;DHT22;64929;51.178;4.138;2023-03-14T12:29:24;8.90;80.50
76172;DHT22;64929;51.178;4.138;2023-03-14T12:34:36;9.40;79.30
76172;DHT22;64929;51.178;4.138;2023-03-14T12:37:26;9.40;79.00
76172;DHT22;64929;51.178;4.138;2023-03-14T12:40:11;9.40;78.40
76172;DHT22;64929;51.178;4.138;2023-03-14T12:42:45;9.40;77.50
76172;DHT22;64929;51.178;4.138;2023-03-14T12:47:51;9.40;76.90
76172;DHT22;64929;51.178;4.138;2023-03-14T12:50:29;9.50;73.60
76172;DHT22;64929;51.178;4.138;2023-03-14T12:55:29;9.30;70.30
76172;DHT22;64929;51.178;4.138;2023-03-14T13:00:29;9.30;69.70
76172;DHT22;64929;51.178;4.138;2023-03-14T13:02:59;9.30;67.20
76172;DHT22;64929;51.178;4.138;2023-03-14T13:05:25;9.00;66.30
76172;DHT22;64929;51.178;4.138;2023-03-14T13:10:29;9.00;67.10
76172;DHT22;64929;51.178;4.138;2023-03-14T13:15:31;8.90;59.20
76172;DHT22;64929;51.178;4.138;2023-03-14T13:18:02;9.00;59.20
76172;DHT22;64929;51.178;4.138;2023-03-14T13:20:30;9.10;59.80
76172;DHT22;64929;51.178;4.138;2023-03-14T13:22:56;9.20;60.80
76172;DHT22;64929;51.178;4.138;2023-03-14T13:25:22;9.50;61.50
76172;DHT22;64929;51.178;4.138;2023-03-14T13:27:48;9.60;56.80
76172;DHT22;64929;51.178;4.138;2023-03-14T13:30:18;9.50;56.40
76172;DHT22;64929;51.178;4.138;2023-03-14T13:32:46;9.50;54.30
76172;DHT22;64929;51.178;4.138;2023-03-14T13:35:16;9.70;54.80
76172;DHT22;64929;51.178;4.138;2023-03-14T13:37:42;9.70;55.60
76172;DHT22;64929;51.178;4.138;2023-03-14T13:40:17;9.80;57.20
76172;DHT22;64929;51.178;4.138;2023-03-14T13:42:43;9.90;56.20
76172;DHT22;64929;51.178;4.138;2023-03-14T13:45:09;10.00;53.50
76172;DHT22;64929;51.178;4.138;2023-03-14T13:47:37;10.00;53.60
76172;DHT22;64929;51.178;4.138;2023-03-14T13:50:04;10.10;49.10
76172;DHT22;64929;51.178;4.138;2023-03-14T13:52:36;10.10;49.60
76172;DHT22;64929;51.178;4.138;2023-03-14T13:55:02;9.90;48.30
76172;DHT22;64929;51.178;4.138;2023-03-14T13:57:42;9.70;48.40
76172;DHT22;64929;51.178;4.138;2023-03-14T14:00:16;9.50;48.50
76172;DHT22;64929;51.178;4.138;2023-03-14T14:02:42;9.20;49.20
76172;DHT22;64929;51.178;4.138;2023-03-14T14:05:10;9.20;45.80
76172;DHT22;64929;51.178;4.138;2023-03-14T14:07:36;9.20;42.90
76172;DHT22;64929;51.178;4.138;2023-03-14T14:10:03;9.00;41.20
76172;DHT22;64929;51.178;4.138;2023-03-14T14:12:33;9.20;41.70
76172;DHT22;64929;51.178;4.138;2023-03-14T14:20:00;8.70;42.70
76172;DHT22;64929;51.178;4.138;2023-03-14T14:22:28;8.80;43.20
76172;DHT22;64929;51.178;4.138;2023-03-14T14:24:54;9.10;45.20
76172;DHT22;64929;51.178;4.138;2023-03-14T14:27:33;9.40;44.10
76172;DHT22;64929;51.178;4.138;2023-03-14T14:30:04;9.40;43.30
76172;DHT22;64929;51.178;4.138;2023-03-14T14:32:37;9.50;44.20
76172;DHT22;64929;51.178;4.138;2023-03-14T14:35:03;9.40;43.70
76172;DHT22;64929;51.178;4.138;2023-03-14T14:37:30;9.50;45.20
76172;DHT22;64929;51.178;4.138;2023-03-14T14:39:57;9.70;44.00
76172;DHT22;64929;51.178;4.138;2023-03-14T14:42:30;9.70;43.80
76172;DHT22;64929;51.178;4.138;2023-03-14T14:44:56;9.80;45.40
76172;DHT22;64929;51.178;4.138;2023-03-14T14:47:24;9.70;46.80
76172;DHT22;64929;51.178;4.138;2023-03-14T14:49:51;9.70;46.90
76172;DHT22;64929;51.178;4.138;2023-03-14T14:52:17;9.60;47.80
76172;DHT22;64929;51.178;4.138;2023-03-14T14:54:47;9.50;48.00
76172;DHT22;64929;51.178;4.138;2023-03-14T14:57:24;9.40;46.70
76172;DHT22;64929;51.178;4.138;2023-03-14T14:59:50;9.50;47.40
76172;DHT22;64929;51.178;4.138;2023-03-14T15:02:27;9.40;47.50
76172;DHT22;64929;51.178;4.138;2023-03-14T15:04:53;9.50;47.30
76172;DHT22;64929;51.178;4.138;2023-03-14T15:07:19;9.50;49.10
76172;DHT22;64929;51.178;4.138;2023-03-14T15:09:44;9.50;49.20
76172;DHT22;64929;51.178;4.138;2023-03-14T15:12:10;9.40;50.00
76172;DHT22;64929;51.178;4.138;2023-03-14T15:14:36;9.10;51.60
76172;DHT22;64929;51.178;4.138;2023-03-14T15:17:02;9.20;51.30
76172;DHT22;64929;51.178;4.138;2023-03-14T15:19:27;9.30;50.40
76172;DHT22;64929;51.178;4.138;2023-03-14T15:21:55;9.40;49.90
76172;DHT22;64929;51.178;4.138;2023-03-14T15:24:21;9.30;50.50
76172;DHT22;64929;51.178;4.138;2023-03-14T15:26:47;8.90;52.00
76172;DHT22;64929;51.178;4.138;2023-03-14T15:29:12;9.00;52.50
76172;DHT22;64929;51.178;4.138;2023-03-14T15:31:39;9.00;52.40
76172;DHT22;64929;51.178;4.138;2023-03-14T15:34:05;8.80;52.80
76172;DHT22;64929;51.178;4.138;2023-03-14T15:36:31;8.80;52.90
76172;DHT22;64929;51.178;4.138;2023-03-14T15:38:57;8.90;53.30
76172;DHT22;64929;51.178;4.138;2023-03-14T15:41:24;8.90;51.00
76172;DHT22;64929;51.178;4.138;2023-03-14T15:43:50;8.90;51.40
76172;DHT22;64929;51.178;4.138;2023-03-14T15:46:16;9.00;49.50
76172;DHT22;64929;51.178;4.138;2023-03-14T15:48:43;9.00;49.40
76172;DHT22;64929;51.178;4.138;2023-03-14T15:51:10;9.10;49.60
76172;DHT22;64929;51.178;4.138;2023-03-14T15:53:38;8.80;49.60
76172;DHT22;64929;51.178;4.138;2023-03-14T15:56:05;9.00;50.30
76172;DHT22;64929;51.178;4.138;2023-03-14T15:58:31;9.10;49.40
76172;DHT22;64929;51.178;4.138;2023-03-14T16:01:02;9.00;49.30
76172;DHT22;64929;51.178;4.138;2023-03-14T16:03:28;9.30;48.10
76172;DHT22;64929;51.178;4.138;2023-03-14T16:05:55;9.30;48.10
76172;DHT22;64929;51.178;4.138;2023-03-14T16:08:22;9.30;48.50
76172;DHT22;64929;51.178;4.138;2023-03-14T16:10:48;9.10;48.40
76172;DHT22;64929;51.178;4.138;2023-03-14T16:13:14;9.10;48.90
76172;DHT22;64929;51.178;4.138;2023-03-14T16:15:40;9.00;49.90
76172;DHT22;64929;51.178;4.138;2023-03-14T16:18:05;9.20;50.40
76172;DHT22;64929;51.178;4.138;2023-03-14T16:20:31;9.40;50.00
76172;DHT22;64929;51.178;4.138;2023-03-14T16:22:56;9.50;49.40
76172;DHT22;64929;51.178;4.138;2023-03-14T16:25:22;9.50;50.90
76172;DHT22;64929;51.178;4.138;2023-03-14T16:27:47;9.80;50.50
76172;DHT22;64929;51.178;4.138;2023-03-14T16:30:13;9.80;50.50
76172;DHT22;64929;51.178;4.138;2023-03-14T16:32:39;9.60;51.40
76172;DHT22;64929;51.178;4.138;2023-03-14T16:35:05;9.30;53.20
76172;DHT22;64929;51.178;4.138;2023-03-14T16:37:31;9.00;54.40
76172;DHT22;64929;51.178;4.138;2023-03-14T16:39:56;9.10;54.20
76172;DHT22;64929;51.178;4.138;2023-03-14T16:42:22;9.20;53.80
76172;DHT22;64929;51.178;4.138;2023-03-14T16:44:47;9.20;52.90
76172;DHT22;64929;51.178;4.138;2023-03-14T16:47:13;9.00;53.30
76172;DHT22;64929;51.178;4.138;2023-03-14T16:49:38;8.90;53.20